createdAt,value
2022-08-19T00:01:53.784Z,7.95
2022-08-19T00:04:25.287Z,5.80
2022-08-19T00:06:52.939Z,6.35
2022-08-19T00:09:22.487Z,5.20
2022-08-19T00:11:49.108Z,5.53
2022-08-19T00:14:18.011Z,6.55
2022-08-19T00:16:46.637Z,5.22
2022-08-19T00:19:13.440Z,5.63
2022-08-19T00:21:40.497Z,5.07
2022-08-19T00:24:12.057Z,5.97
2022-08-19T00:26:39.737Z,6.43
2022-08-19T00:29:08.503Z,5.72
2022-08-19T00:31:35.090Z,6.45
2022-08-19T00:34:01.551Z,5.73
2022-08-19T00:36:29.523Z,6.13
2022-08-19T00:38:56.488Z,5.43
2022-08-19T00:41:24.651Z,6.53
2022-08-19T00:44:06.090Z,5.82
2022-08-19T00:46:34.369Z,6.50
2022-08-19T00:49:03.479Z,5.57
2022-08-19T00:51:33.389Z,5.55
2022-08-19T00:54:01.809Z,5.13
2022-08-19T00:56:28.746Z,6.40
2022-08-19T00:58:58.576Z,7.10
2022-08-19T01:01:25.157Z,7.35
2022-08-19T01:03:57.233Z,8.82
2022-08-19T01:06:26.631Z,6.13
2022-08-19T01:08:54.593Z,5.68
2022-08-19T01:11:21.303Z,5.93
2022-08-19T01:13:49.752Z,6.05
2022-08-19T01:16:18.438Z,4.75
2022-08-19T01:18:44.908Z,4.45
2022-08-19T01:21:33.461Z,5.47
2022-08-19T01:24:00.128Z,5.57
2022-08-19T01:26:27.569Z,6.68
2022-08-19T01:28:59.611Z,6.80
2022-08-19T01:31:32.711Z,6.50
2022-08-19T01:34:01.092Z,8.38
2022-08-19T01:36:31.788Z,7.17
2022-08-19T01:39:00.359Z,5.40
2022-08-19T01:41:26.897Z,5.90
2022-08-19T01:44:13.505Z,6.30
2022-08-19T01:46:41.479Z,6.18
2022-08-19T01:49:09.088Z,7.17
2022-08-19T01:51:39.718Z,6.38
2022-08-19T01:54:11.132Z,5.30
2022-08-19T01:56:37.593Z,7.00
2022-08-19T01:59:09.250Z,6.53
2022-08-19T02:01:35.839Z,6.03
2022-08-19T02:04:02.693Z,7.72
2022-08-19T02:06:29.907Z,7.18
2022-08-19T02:08:57.582Z,5.50
2022-08-19T02:11:35.086Z,5.75
2022-08-19T02:14:04.249Z,7.93
2022-08-19T02:16:31.516Z,4.68
2022-08-19T02:19:01.638Z,5.90
2022-08-19T02:21:29.090Z,6.50
2022-08-19T02:23:56.331Z,5.68
2022-08-19T02:26:23.181Z,12.07
2022-08-19T02:28:49.843Z,6.22
2022-08-19T02:31:19.842Z,6.18
2022-08-19T02:33:46.574Z,5.45
2022-08-19T02:36:15.538Z,6.60
2022-08-19T02:38:42.854Z,7.27
2022-08-19T02:41:19.834Z,7.57
2022-08-19T02:44:28.839Z,4.88
2022-08-19T02:46:34.563Z,6.35
2022-08-19T02:49:04.627Z,5.05
2022-08-19T02:51:34.451Z,6.70
2022-08-19T02:54:01.567Z,11.65
2022-08-19T02:56:28.365Z,5.78
2022-08-19T02:58:56.471Z,9.07
2022-08-19T03:01:29.655Z,6.13
2022-08-19T03:03:57.485Z,7.43
2022-08-19T03:06:24.774Z,6.60
2022-08-19T03:08:51.796Z,6.28
2022-08-19T03:11:30.398Z,6.90
2022-08-19T03:13:58.290Z,8.48
2022-08-19T03:16:27.408Z,6.20
2022-08-19T03:18:55.023Z,8.50
2022-08-19T03:21:25.506Z,6.70
2022-08-19T03:23:55.365Z,12.60
2022-08-19T03:26:21.839Z,8.73
2022-08-19T03:28:51.545Z,9.47
2022-08-19T03:31:44.462Z,9.30
2022-08-19T03:34:18.542Z,7.95
2022-08-19T03:36:45.685Z,10.35
2022-08-19T03:39:12.231Z,10.85
2022-08-19T03:41:45.422Z,9.00
2022-08-19T03:44:19.576Z,8.73
2022-08-19T03:46:56.038Z,10.13
2022-08-19T03:49:27.208Z,9.73
2022-08-19T03:51:57.395Z,12.65
2022-08-19T03:54:25.714Z,11.27
2022-08-19T03:56:54.559Z,11.60
2022-08-19T03:59:33.579Z,12.40
2022-08-19T04:02:02.760Z,12.60
2022-08-19T04:04:29.843Z,13.68
2022-08-19T04:06:58.389Z,13.63
2022-08-19T04:09:24.799Z,13.55
2022-08-19T04:11:57.119Z,13.50
2022-08-19T04:14:26.818Z,13.20
2022-08-19T04:16:53.616Z,17.52
2022-08-19T04:19:20.753Z,12.67
2022-08-19T04:21:49.316Z,13.43
2022-08-19T04:24:16.671Z,15.30
2022-08-19T04:26:43.819Z,12.65
2022-08-19T04:29:16.710Z,12.20
2022-08-19T04:31:45.286Z,11.93
2022-08-19T04:34:15.188Z,11.70
2022-08-19T04:36:45.460Z,16.30
2022-08-19T04:39:17.623Z,16.73
2022-08-19T04:42:04.203Z,32.72
2022-08-19T04:44:35.632Z,35.37
2022-08-19T04:47:10.786Z,31.13
2022-08-19T04:49:38.185Z,20.65
2022-08-19T04:52:04.610Z,15.68
2022-08-19T04:54:38.175Z,21.48
2022-08-19T04:57:09.571Z,13.90
2022-08-19T04:59:37.558Z,11.95
2022-08-19T05:02:05.236Z,25.13
2022-08-19T05:04:33.360Z,23.38
2022-08-19T05:07:01.957Z,19.40
2022-08-19T05:09:42.162Z,13.03
2022-08-19T05:12:16.696Z,11.93
2022-08-19T05:14:43.560Z,12.20
2022-08-19T05:20:19.750Z,13.02
2022-08-19T05:22:48.013Z,11.87
2022-08-19T05:25:20.169Z,9.95
2022-08-19T05:27:47.969Z,9.98
2022-08-19T05:30:15.314Z,11.00
2022-08-19T05:32:42.204Z,10.25
2022-08-19T05:35:10.369Z,11.77
2022-08-19T05:37:36.827Z,10.55
2022-08-19T05:40:04.944Z,13.55
2022-08-19T05:42:31.589Z,10.43
2022-08-19T05:44:58.170Z,13.27
2022-08-19T05:47:24.635Z,14.63
2022-08-19T05:49:51.753Z,14.73
2022-08-19T05:52:19.563Z,19.63
2022-08-19T05:54:55.505Z,20.23
2022-08-19T05:57:22.237Z,24.17
2022-08-19T05:59:57.610Z,24.33
2022-08-19T06:02:26.886Z,24.40
2022-08-19T06:04:53.427Z,30.40
2022-08-19T06:07:20.400Z,27.90
2022-08-19T06:09:59.023Z,24.90
2022-08-19T06:12:32.660Z,25.90
2022-08-19T06:15:01.685Z,28.58
2022-08-19T06:17:31.311Z,23.48
2022-08-19T06:19:59.216Z,24.08
2022-08-19T06:22:25.642Z,26.70
2022-08-19T06:24:53.636Z,26.03
2022-08-19T06:27:21.161Z,32.05
2022-08-19T06:29:48.062Z,32.33
2022-08-19T06:32:17.321Z,33.15
2022-08-19T06:34:43.942Z,35.60
2022-08-19T06:37:10.367Z,33.47
2022-08-19T06:39:39.973Z,33.38
2022-08-19T06:42:10.955Z,40.55
2022-08-19T06:44:42.658Z,40.80
2022-08-19T06:47:14.833Z,39.22
2022-08-19T06:49:42.585Z,45.23
2022-08-19T06:52:13.678Z,38.50
2022-08-19T06:54:45.926Z,38.17
2022-08-19T06:57:24.055Z,45.53
2022-08-19T06:59:50.636Z,42.25
2022-08-19T07:04:48.490Z,48.47
2022-08-19T07:07:21.818Z,54.67
2022-08-19T07:09:57.292Z,55.60
2022-08-19T07:12:30.418Z,51.15
2022-08-19T07:14:58.638Z,53.83
2022-08-19T07:17:25.357Z,51.97
2022-08-19T07:19:54.359Z,49.30
2022-08-19T07:22:24.246Z,56.33
2022-08-19T07:24:51.979Z,51.92
2022-08-19T07:27:24.199Z,58.03
2022-08-19T07:29:55.701Z,56.33
2022-08-19T07:32:23.031Z,51.08
2022-08-19T07:34:49.450Z,55.53
2022-08-19T07:37:17.103Z,58.35
2022-08-19T07:39:43.755Z,54.67
2022-08-19T07:42:11.434Z,52.38
2022-08-19T07:47:48.758Z,50.38
2022-08-19T07:50:08.033Z,51.25
2022-08-19T07:52:35.174Z,50.00
2022-08-19T07:55:04.599Z,54.05
2022-08-19T07:57:31.129Z,52.95
2022-08-19T07:59:57.682Z,53.05
2022-08-19T08:02:24.140Z,45.05
2022-08-19T08:05:09.845Z,52.07
2022-08-19T08:07:54.643Z,44.80
2022-08-19T08:10:21.630Z,40.38
2022-08-19T08:13:09.155Z,45.53
2022-08-19T08:15:42.123Z,42.42
2022-08-19T08:18:09.782Z,42.60
2022-08-19T08:20:36.243Z,43.72
2022-08-19T08:23:21.659Z,39.50
2022-08-19T08:25:49.417Z,34.63
2022-08-19T08:28:17.706Z,42.38
2022-08-19T08:30:46.800Z,41.73
2022-08-19T08:35:46.586Z,32.78
2022-08-19T08:38:13.754Z,38.17
2022-08-19T08:40:54.351Z,38.30
2022-08-19T08:43:33.073Z,35.07
2022-08-19T08:46:08.552Z,37.17
2022-08-19T08:48:47.488Z,33.50
2022-08-19T08:51:24.934Z,29.23
2022-08-19T08:53:57.770Z,30.95
2022-08-19T08:56:24.281Z,35.03
2022-08-19T08:59:09.336Z,34.47
2022-08-19T09:01:37.014Z,29.58
2022-08-19T09:04:06.411Z,25.50
2022-08-19T09:07:00.088Z,25.67
2022-08-19T09:09:42.080Z,24.83
2022-08-19T09:12:16.174Z,24.17
2022-08-19T09:14:57.855Z,26.27
2022-08-19T09:17:36.405Z,23.50
2022-08-19T09:20:20.240Z,26.85
2022-08-19T09:22:47.547Z,24.00
2022-08-19T09:25:16.999Z,26.20
2022-08-19T09:27:55.174Z,24.00
2022-08-19T09:30:31.731Z,24.92
2022-08-19T09:32:58.657Z,25.63
2022-08-19T09:35:29.668Z,28.10
2022-08-19T09:37:59.590Z,25.00
2022-08-19T09:40:28.178Z,21.85
2022-08-19T09:42:58.122Z,25.02
2022-08-19T09:45:24.892Z,22.58
2022-08-19T09:47:54.169Z,19.77
2022-08-19T09:50:22.974Z,20.50
2022-08-19T09:52:53.975Z,22.10
2022-08-19T09:55:23.398Z,19.55
2022-08-19T09:57:50.606Z,19.65
2022-08-19T10:00:17.311Z,18.70
2022-08-19T10:02:44.767Z,16.60
2022-08-19T10:05:31.255Z,19.38
2022-08-19T10:07:58.345Z,14.65
2022-08-19T10:10:25.132Z,20.05
2022-08-19T10:12:51.619Z,17.37
2022-08-19T10:15:28.981Z,19.65
2022-08-19T10:17:56.377Z,14.60
2022-08-19T10:20:23.701Z,17.90
2022-08-19T10:22:51.924Z,21.45
2022-08-19T10:25:19.849Z,20.17
2022-08-19T10:27:51.144Z,23.17
2022-08-19T10:30:18.891Z,17.95
2022-08-19T10:32:47.058Z,18.17
2022-08-19T10:35:21.158Z,18.30
2022-08-19T10:37:56.741Z,20.23
2022-08-19T10:40:24.246Z,21.60
2022-08-19T10:42:50.718Z,27.02
2022-08-19T10:45:17.880Z,21.10
2022-08-19T10:47:44.310Z,22.80
2022-08-19T10:50:30.146Z,17.77
2022-08-19T10:52:56.711Z,20.83
2022-08-19T10:55:43.902Z,19.33
2022-08-19T10:58:13.083Z,17.85
2022-08-19T11:00:41.108Z,20.02
2022-08-19T11:03:07.535Z,22.00
2022-08-19T11:05:39.999Z,20.52
2022-08-19T11:08:23.115Z,20.73
2022-08-19T11:10:54.530Z,20.08
2022-08-19T11:13:21.143Z,23.90
2022-08-19T11:15:48.368Z,20.67
2022-08-19T11:18:14.896Z,22.50
2022-08-19T11:20:41.311Z,22.30
2022-08-19T11:23:08.024Z,20.25
2022-08-19T11:25:35.420Z,25.63
2022-08-19T11:28:01.815Z,23.60
2022-08-19T11:30:28.860Z,22.35
2022-08-19T11:32:55.302Z,20.52
2022-08-19T11:35:22.061Z,24.67
2022-08-19T11:37:48.604Z,21.20
2022-08-19T11:40:15.190Z,27.17
2022-08-19T11:42:57.065Z,25.77
2022-08-19T11:45:29.007Z,20.08
2022-08-19T11:47:56.481Z,25.42
2022-08-19T11:50:24.511Z,23.70
2022-08-19T11:52:52.206Z,29.10
2022-08-19T11:55:19.010Z,21.48
2022-08-19T11:57:45.462Z,23.63
2022-08-19T12:00:14.041Z,23.60
2022-08-19T12:02:41.441Z,21.33
2022-08-19T12:05:12.225Z,25.80
2022-08-19T12:07:40.584Z,23.58
2022-08-19T12:10:07.810Z,21.55
2022-08-19T12:12:34.889Z,26.27
2022-08-19T12:15:01.521Z,22.77
2022-08-19T12:17:28.049Z,23.43
2022-08-19T12:19:55.209Z,27.35
2022-08-19T12:22:22.370Z,26.42
2022-08-19T12:24:53.294Z,25.75
2022-08-19T12:27:32.056Z,26.65
2022-08-19T12:30:09.795Z,26.13
2022-08-19T12:32:36.333Z,26.75
2022-08-19T12:35:05.730Z,26.00
2022-08-19T12:37:33.234Z,27.25
2022-08-19T12:40:00.463Z,27.15
2022-08-19T12:42:27.369Z,25.63
2022-08-19T12:44:53.852Z,25.45
2022-08-19T12:47:21.370Z,28.05
2022-08-19T12:49:53.123Z,24.10
2022-08-19T12:52:23.293Z,20.63
2022-08-19T12:54:54.631Z,21.40
2022-08-19T12:57:23.214Z,19.73
2022-08-19T12:59:59.296Z,17.65
2022-08-19T13:02:25.702Z,18.95
2022-08-19T13:04:52.090Z,17.00
2022-08-19T13:07:18.604Z,17.53
2022-08-19T13:09:45.722Z,16.67
2022-08-19T13:12:14.013Z,19.63
2022-08-19T13:14:42.011Z,21.20
2022-08-19T13:17:09.567Z,16.15
2022-08-19T13:19:37.787Z,19.43
2022-08-19T13:22:04.326Z,14.18
2022-08-19T13:24:37.879Z,16.63
2022-08-19T13:27:04.667Z,16.00
2022-08-19T13:29:49.788Z,16.45
2022-08-19T13:32:34.695Z,25.43
2022-08-19T13:35:03.964Z,26.30
2022-08-19T13:37:42.454Z,24.75
2022-08-19T13:40:35.203Z,27.30
2022-08-19T13:43:17.570Z,25.98
2022-08-19T13:45:52.872Z,25.97
2022-08-19T13:48:19.729Z,22.73
2022-08-19T13:50:48.308Z,22.88
2022-08-19T13:53:15.944Z,24.33
2022-08-19T13:55:44.059Z,23.65
2022-08-19T13:58:11.680Z,23.60
2022-08-19T14:00:43.557Z,20.75
2022-08-19T14:03:10.477Z,24.33
2022-08-19T14:05:37.550Z,24.27
2022-08-19T14:08:04.206Z,23.13
2022-08-19T14:10:32.487Z,19.97
2022-08-19T14:13:03.045Z,20.50
2022-08-19T14:15:31.050Z,19.38
2022-08-19T14:17:57.567Z,19.88
2022-08-19T14:20:25.870Z,18.13
2022-08-19T14:22:54.035Z,21.43
2022-08-19T14:25:25.463Z,19.35
2022-08-19T14:27:52.111Z,22.48
2022-08-19T14:30:22.089Z,20.40
2022-08-19T14:32:48.573Z,24.52
2022-08-19T14:35:16.456Z,20.13
2022-08-19T14:37:46.116Z,21.27
2022-08-19T14:40:15.340Z,16.95
2022-08-19T14:42:42.831Z,16.33
2022-08-19T14:45:10.310Z,17.05
2022-08-19T14:47:37.243Z,16.23
2022-08-19T14:50:10.542Z,13.77
2022-08-19T14:52:44.602Z,14.43
2022-08-19T14:55:11.043Z,15.20
2022-08-19T14:57:37.611Z,14.05
2022-08-19T15:00:08.724Z,14.63
2022-08-19T15:02:35.586Z,12.68
2022-08-19T15:05:05.117Z,12.27
2022-08-19T15:07:32.170Z,11.57
2022-08-19T15:09:58.720Z,12.75
2022-08-19T15:12:25.626Z,13.10
2022-08-19T15:14:55.952Z,11.77
2022-08-19T15:17:43.389Z,10.20
2022-08-19T15:20:13.543Z,11.40
2022-08-19T15:22:40.900Z,9.52
2022-08-19T15:25:11.736Z,8.03
2022-08-19T15:27:39.672Z,8.40
2022-08-19T15:30:09.210Z,6.60
2022-08-19T15:32:39.646Z,7.22
2022-08-19T15:35:07.466Z,7.32
2022-08-19T15:37:37.161Z,7.53
2022-08-19T15:40:09.491Z,7.53
2022-08-19T15:42:37.573Z,7.63
2022-08-19T15:45:06.294Z,6.15
2022-08-19T15:47:34.541Z,6.03
2022-08-19T15:50:13.494Z,6.27
2022-08-19T15:52:52.431Z,9.48
2022-08-19T15:55:32.433Z,7.57
2022-08-19T15:58:28.469Z,4.82
2022-08-19T16:01:20.584Z,6.25
2022-08-19T16:04:14.213Z,5.57
2022-08-19T16:06:51.054Z,8.38
2022-08-19T16:09:24.942Z,6.43
2022-08-19T16:11:56.895Z,8.30
2022-08-19T16:14:24.346Z,6.38
2022-08-19T16:16:51.415Z,8.60
2022-08-19T16:19:21.346Z,7.88
2022-08-19T16:21:52.388Z,7.25
2022-08-19T16:24:21.298Z,7.47
2022-08-19T16:26:48.251Z,7.05
2022-08-19T16:29:33.440Z,7.57
2022-08-19T16:32:02.866Z,7.18
2022-08-19T16:34:29.947Z,8.15
2022-08-19T16:36:56.379Z,9.32
2022-08-19T16:39:23.748Z,9.15
2022-08-19T16:41:51.489Z,6.77
2022-08-19T16:44:20.766Z,9.65
2022-08-19T16:46:55.713Z,8.07
2022-08-19T16:49:52.990Z,7.43
2022-08-19T16:52:21.286Z,7.25
2022-08-19T16:54:48.526Z,7.43
2022-08-19T16:57:15.113Z,7.15
2022-08-19T16:59:43.760Z,6.90
2022-08-19T17:02:15.580Z,7.60
2022-08-19T17:04:42.070Z,7.47
2022-08-19T17:07:10.048Z,9.83
2022-08-19T17:09:36.839Z,8.70
2022-08-19T17:12:07.756Z,9.93
2022-08-19T17:14:37.048Z,10.73
2022-08-19T17:17:03.592Z,11.30
2022-08-19T17:19:30.123Z,9.37
2022-08-19T17:21:57.777Z,9.52
2022-08-19T17:24:26.835Z,10.13
2022-08-19T17:26:53.369Z,12.20
2022-08-19T17:29:27.479Z,12.68
2022-08-19T17:31:53.948Z,11.00
2022-08-19T17:34:31.810Z,10.68
2022-08-19T17:36:58.353Z,10.23
2022-08-19T17:39:29.924Z,9.93
2022-08-19T17:42:47.633Z,10.57
2022-08-19T17:45:14.541Z,8.70
2022-08-19T17:47:52.784Z,10.50
2022-08-19T17:50:20.143Z,9.82
2022-08-19T17:53:06.197Z,8.77
2022-08-19T17:55:41.667Z,9.13
2022-08-19T17:58:08.596Z,8.50
2022-08-19T18:00:53.817Z,8.65
2022-08-19T18:04:12.665Z,8.80
2022-08-19T18:06:46.908Z,6.88
2022-08-19T18:09:20.803Z,8.25
2022-08-19T18:11:54.896Z,9.80
2022-08-19T18:14:34.124Z,7.95
2022-08-19T18:17:15.285Z,8.45
2022-08-19T18:19:52.629Z,12.23
2022-08-19T18:22:38.053Z,8.48
2022-08-19T18:25:16.607Z,6.43
2022-08-19T18:27:43.346Z,7.18
2022-08-19T18:30:10.591Z,8.63
2022-08-19T18:32:42.294Z,7.97
2022-08-19T18:35:14.254Z,9.70
2022-08-19T18:37:41.905Z,7.00
2022-08-19T18:40:31.021Z,5.10
2022-08-19T18:43:03.600Z,4.93
2022-08-19T18:45:49.779Z,5.38
2022-08-19T18:48:35.002Z,3.42
2022-08-19T18:51:02.170Z,5.40
2022-08-19T18:53:32.265Z,4.78
2022-08-19T18:55:59.546Z,3.97
2022-08-19T18:58:35.215Z,4.72
2022-08-19T19:01:11.179Z,5.05
2022-08-19T19:03:42.661Z,4.90
2022-08-19T19:06:13.904Z,4.18
2022-08-19T19:08:40.757Z,4.55
2022-08-19T19:11:09.377Z,4.25
2022-08-19T19:13:39.754Z,3.95
2022-08-19T19:16:13.082Z,3.17
2022-08-19T19:18:39.609Z,3.42
2022-08-19T19:21:07.943Z,4.18
2022-08-19T19:23:34.768Z,2.45
2022-08-19T19:26:01.695Z,4.55
2022-08-19T19:28:29.316Z,3.93
2022-08-19T19:31:00.148Z,3.58
2022-08-19T19:33:27.920Z,4.57
2022-08-19T19:35:54.834Z,3.33
2022-08-19T19:38:21.403Z,4.90
2022-08-19T19:40:48.003Z,3.00
2022-08-19T19:43:17.248Z,3.22
2022-08-19T19:45:44.387Z,3.42
2022-08-19T19:48:16.248Z,5.47
2022-08-19T19:50:44.634Z,4.93
2022-08-19T19:53:11.308Z,4.20
2022-08-19T19:55:37.798Z,4.15
2022-08-19T19:58:06.939Z,6.43
2022-08-19T20:00:34.040Z,4.90
2022-08-19T20:03:00.648Z,7.18
2022-08-19T20:05:27.157Z,4.93
2022-08-19T20:08:13.246Z,4.72
2022-08-19T20:10:42.775Z,4.88
2022-08-19T20:13:10.689Z,2.95
2022-08-19T20:15:42.376Z,5.10
2022-08-19T20:18:11.925Z,4.07
2022-08-19T20:20:38.645Z,5.30
2022-08-19T20:23:05.287Z,5.13
2022-08-19T20:25:32.201Z,4.80
2022-08-19T20:28:01.124Z,4.10
2022-08-19T20:30:28.674Z,5.13
2022-08-19T20:32:58.827Z,8.43
2022-08-19T20:35:26.413Z,11.38
2022-08-19T20:37:58.013Z,6.53
2022-08-19T20:40:25.138Z,5.43
2022-08-19T20:42:54.441Z,6.00
2022-08-19T20:45:32.731Z,9.07
2022-08-19T20:48:02.656Z,5.45
2022-08-19T20:50:30.595Z,7.78
2022-08-19T20:52:57.598Z,7.55
2022-08-19T20:55:24.292Z,8.37
2022-08-19T20:57:51.627Z,6.15
2022-08-19T21:00:19.038Z,6.78
2022-08-19T21:02:46.868Z,9.60
2022-08-19T21:05:13.830Z,8.05
2022-08-19T21:07:40.413Z,9.13
2022-08-19T21:10:07.547Z,10.32
2022-08-19T21:12:34.149Z,7.95
2022-08-19T21:15:03.238Z,8.65
2022-08-19T21:17:43.674Z,9.60
2022-08-19T21:20:10.453Z,8.13
2022-08-19T21:22:37.105Z,9.32
2022-08-19T21:25:06.253Z,8.98
2022-08-19T21:27:32.929Z,8.23
2022-08-19T21:29:59.466Z,9.70
2022-08-19T21:32:26.038Z,11.10
2022-08-19T21:34:52.839Z,10.32
2022-08-19T21:37:24.854Z,11.95
2022-08-19T21:39:52.563Z,11.93
2022-08-19T21:42:19.041Z,10.57
2022-08-19T21:44:45.970Z,10.50
2022-08-19T21:47:12.961Z,13.05
2022-08-19T21:49:39.602Z,10.70
2022-08-19T21:52:06.602Z,10.80
2022-08-19T21:54:38.136Z,13.80
2022-08-19T21:57:10.242Z,9.10
2022-08-19T21:59:41.148Z,11.55
2022-08-19T22:02:19.915Z,12.77
2022-08-19T22:04:47.994Z,10.40
2022-08-19T22:07:14.847Z,11.48
2022-08-19T22:09:42.494Z,9.67
2022-08-19T22:12:20.950Z,9.73
2022-08-19T22:14:47.401Z,11.27
2022-08-19T22:17:14.633Z,11.00
2022-08-19T22:19:41.373Z,12.05
2022-08-19T22:22:08.080Z,9.70
2022-08-19T22:24:34.534Z,14.98
2022-08-19T22:27:02.387Z,9.63
2022-08-19T22:29:33.795Z,14.20
2022-08-19T22:32:01.560Z,11.15
2022-08-19T22:34:48.020Z,15.47
2022-08-19T22:37:14.574Z,10.70
2022-08-19T22:39:41.110Z,14.68
2022-08-19T22:42:07.611Z,13.48
2022-08-19T22:44:34.036Z,12.43
2022-08-19T22:47:00.494Z,12.27
2022-08-19T22:49:26.962Z,11.95
2022-08-19T22:52:12.183Z,10.98
2022-08-19T22:54:38.713Z,14.80
2022-08-19T22:57:05.307Z,13.40
2022-08-19T22:59:31.792Z,13.47
2022-08-19T23:01:58.242Z,13.25
2022-08-19T23:04:24.821Z,14.52
2022-08-19T23:06:52.545Z,12.18
2022-08-19T23:09:19.679Z,12.25
2022-08-19T23:11:49.979Z,11.47
2022-08-19T23:14:18.560Z,13.98
2022-08-19T23:16:50.443Z,11.90
2022-08-19T23:19:27.155Z,13.07
2022-08-19T23:21:53.687Z,14.02
2022-08-19T23:24:20.206Z,13.63
2022-08-19T23:27:05.381Z,14.48
2022-08-19T23:29:50.708Z,11.73
2022-08-19T23:32:21.500Z,14.00
2022-08-19T23:34:48.596Z,11.70
2022-08-19T23:37:15.618Z,14.43
2022-08-19T23:39:42.208Z,16.20
2022-08-19T23:42:13.782Z,10.70
2022-08-19T23:44:51.960Z,14.18
2022-08-19T23:47:20.061Z,12.10
2022-08-19T23:49:47.521Z,13.60
2022-08-19T23:52:14.038Z,12.15
2022-08-19T23:54:43.127Z,11.90
2022-08-19T23:57:13.779Z,13.10
2022-08-19T23:59:42.416Z,11.63
